sensor_id;sensor_type;location;lat;lon;timestamp;temperature;humidity
4964;DHT22;2497;47.410;9.740;2023-04-16T00:00:48;5.10;99.90
4964;DHT22;2497;47.410;9.740;2023-04-16T00:03:16;5.10;99.90
4964;DHT22;2497;47.410;9.740;2023-04-16T00:05:44;5.10;99.90
4964;DHT22;2497;47.410;9.740;2023-04-16T00:08:11;5.00;99.90
4964;DHT22;2497;47.410;9.740;2023-04-16T00:10:39;5.00;99.90
4964;DHT22;2497;47.410;9.740;2023-04-16T00:13:06;5.00;99.90
4964;DHT22;2497;47.410;9.740;2023-04-16T00:15:33;5.00;99.90
4964;DHT22;2497;47.410;9.740;2023-04-16T00:18:00;4.90;99.90
4964;DHT22;2497;47.410;9.740;2023-04-16T00:20:27;5.00;99.90
4964;DHT22;2497;47.410;9.740;2023-04-16T00:22:56;5.00;99.90
4964;DHT22;2497;47.410;9.740;2023-04-16T00:25:23;5.00;99.90
4964;DHT22;2497;47.410;9.740;2023-04-16T00:27:50;5.00;99.90
4964;DHT22;2497;47.410;9.740;2023-04-16T00:30:21;5.00;99.90
4964;DHT22;2497;47.410;9.740;2023-04-16T00:32:48;5.10;99.90
4964;DHT22;2497;47.410;9.740;2023-04-16T00:35:15;5.20;99.90
4964;DHT22;2497;47.410;9.740;2023-04-16T00:37:42;5.20;99.90
4964;DHT22;2497;47.410;9.740;2023-04-16T00:40:11;5.10;99.90
4964;DHT22;2497;47.410;9.740;2023-04-16T00:42:38;5.10;99.90
4964;DHT22;2497;47.410;9.740;2023-04-16T00:45:07;5.10;99.90
4964;DHT22;2497;47.410;9.740;2023-04-16T00:47:34;5.10;99.90
4964;DHT22;2497;47.410;9.740;2023-04-16T00:50:02;5.10;99.90
4964;DHT22;2497;47.410;9.740;2023-04-16T00:52:30;5.00;99.90
4964;DHT22;2497;47.410;9.740;2023-04-16T00:54:58;4.90;99.90
4964;DHT22;2497;47.410;9.740;2023-04-16T00:57:31;4.90;99.90
4964;DHT22;2497;47.410;9.740;2023-04-16T00:59:58;5.00;99.90
4964;DHT22;2497;47.410;9.740;2023-04-16T01:02:25;4.90;99.90
4964;DHT22;2497;47.410;9.740;2023-04-16T01:04:52;4.90;99.90
4964;DHT22;2497;47.410;9.740;2023-04-16T01:07:20;4.90;99.90
4964;DHT22;2497;47.410;9.740;2023-04-16T01:09:47;4.80;99.90
4964;DHT22;2497;47.410;9.740;2023-04-16T01:12:14;4.80;99.90
4964;DHT22;2497;47.410;9.740;2023-04-16T01:14:43;4.80;99.90
4964;DHT22;2497;47.410;9.740;2023-04-16T01:17:10;4.80;99.90
4964;DHT22;2497;47.410;9.740;2023-04-16T01:19:37;4.70;99.90
4964;DHT22;2497;47.410;9.740;2023-04-16T01:22:06;4.70;99.90
4964;DHT22;2497;47.410;9.740;2023-04-16T01:24:34;4.70;99.90
4964;DHT22;2497;47.410;9.740;2023-04-16T01:27:01;4.60;99.90
4964;DHT22;2497;47.410;9.740;2023-04-16T01:29:28;4.60;99.90
4964;DHT22;2497;47.410;9.740;2023-04-16T01:31:55;4.50;99.90
4964;DHT22;2497;47.410;9.740;2023-04-16T01:34:22;4.50;99.90
4964;DHT22;2497;47.410;9.740;2023-04-16T01:36:49;4.40;99.90
4964;DHT22;2497;47.410;9.740;2023-04-16T01:39:18;4.30;99.90
4964;DHT22;2497;47.410;9.740;2023-04-16T01:41:45;4.30;99.90
4964;DHT22;2497;47.410;9.740;2023-04-16T01:44:12;4.20;99.90
4964;DHT22;2497;47.410;9.740;2023-04-16T01:46:39;4.20;99.90
4964;DHT22;2497;47.410;9.740;2023-04-16T01:49:06;4.20;99.90
4964;DHT22;2497;47.410;9.740;2023-04-16T01:51:34;4.20;99.90
4964;DHT22;2497;47.410;9.740;2023-04-16T01:54:01;4.10;99.90
4964;DHT22;2497;47.410;9.740;2023-04-16T01:56:30;4.10;99.90
4964;DHT22;2497;47.410;9.740;2023-04-16T01:58:59;4.00;99.90
4964;DHT22;2497;47.410;9.740;2023-04-16T02:01:26;4.10;99.90
4964;DHT22;2497;47.410;9.740;2023-04-16T02:03:53;4.00;99.90
4964;DHT22;2497;47.410;9.740;2023-04-16T02:06:20;4.00;99.90
4964;DHT22;2497;47.410;9.740;2023-04-16T02:08:47;4.00;99.90
4964;DHT22;2497;47.410;9.740;2023-04-16T02:11:14;3.90;99.90
4964;DHT22;2497;47.410;9.740;2023-04-16T02:13:43;3.90;99.90
4964;DHT22;2497;47.410;9.740;2023-04-16T02:16:10;3.90;99.90
4964;DHT22;2497;47.410;9.740;2023-04-16T02:18:37;3.90;99.90
4964;DHT22;2497;47.410;9.740;2023-04-16T02:21:04;3.90;99.90
4964;DHT22;2497;47.410;9.740;2023-04-16T02:23:32;4.00;99.90
4964;DHT22;2497;47.410;9.740;2023-04-16T02:26:01;3.90;99.90
4964;DHT22;2497;47.410;9.740;2023-04-16T02:28:28;3.90;99.90
4964;DHT22;2497;47.410;9.740;2023-04-16T02:30:57;3.90;99.90
4964;DHT22;2497;47.410;9.740;2023-04-16T02:33:24;3.90;99.90
4964;DHT22;2497;47.410;9.740;2023-04-16T02:35:51;3.90;99.90
4964;DHT22;2497;47.410;9.740;2023-04-16T02:38:19;3.90;99.90
4964;DHT22;2497;47.410;9.740;2023-04-16T02:40:46;3.90;99.90
4964;DHT22;2497;47.410;9.740;2023-04-16T02:43:13;3.90;99.90
4964;DHT22;2497;47.410;9.740;2023-04-16T02:45:40;4.00;99.90
4964;DHT22;2497;47.410;9.740;2023-04-16T02:48:08;4.00;99.90
4964;DHT22;2497;47.410;9.740;2023-04-16T02:50:35;3.90;99.90
4964;DHT22;2497;47.410;9.740;2023-04-16T02:53:02;3.90;99.90
4964;DHT22;2497;47.410;9.740;2023-04-16T02:55:31;3.90;99.90
4964;DHT22;2497;47.410;9.740;2023-04-16T02:57:58;3.90;99.90
4964;DHT22;2497;47.410;9.740;2023-04-16T03:00:25;4.00;99.90
4964;DHT22;2497;47.410;9.740;2023-04-16T03:02:52;4.00;99.90
4964;DHT22;2497;47.410;9.740;2023-04-16T03:05:21;4.00;99.90
4964;DHT22;2497;47.410;9.740;2023-04-16T03:07:48;4.00;99.90
4964;DHT22;2497;47.410;9.740;2023-04-16T03:10:21;4.00;99.90
4964;DHT22;2497;47.410;9.740;2023-04-16T03:12:48;4.00;99.90
4964;DHT22;2497;47.410;9.740;2023-04-16T03:15:16;4.00;99.90
4964;DHT22;2497;47.410;9.740;2023-04-16T03:17:43;4.00;99.90
4964;DHT22;2497;47.410;9.740;2023-04-16T03:20:10;4.00;99.90
4964;DHT22;2497;47.410;9.740;2023-04-16T03:22:39;4.00;99.90
4964;DHT22;2497;47.410;9.740;2023-04-16T03:25:06;4.00;99.90
4964;DHT22;2497;47.410;9.740;2023-04-16T03:27:34;4.00;99.90
4964;DHT22;2497;47.410;9.740;2023-04-16T03:30:01;4.00;99.90
4964;DHT22;2497;47.410;9.740;2023-04-16T03:32:29;4.00;99.90
4964;DHT22;2497;47.410;9.740;2023-04-16T03:34:56;4.00;99.90
4964;DHT22;2497;47.410;9.740;2023-04-16T03:37:23;4.00;99.90
4964;DHT22;2497;47.410;9.740;2023-04-16T03:39:52;3.90;99.90
4964;DHT22;2497;47.410;9.740;2023-04-16T03:42:19;3.90;99.90
4964;DHT22;2497;47.410;9.740;2023-04-16T03:44:46;3.90;99.90
4964;DHT22;2497;47.410;9.740;2023-04-16T03:47:13;3.90;99.90
4964;DHT22;2497;47.410;9.740;2023-04-16T03:49:40;3.90;99.90
4964;DHT22;2497;47.410;9.740;2023-04-16T03:52:07;3.90;99.90
4964;DHT22;2497;47.410;9.740;2023-04-16T03:54:35;3.90;99.90
4964;DHT22;2497;47.410;9.740;2023-04-16T03:57:04;3.90;99.90
4964;DHT22;2497;47.410;9.740;2023-04-16T03:59:31;3.90;99.90
4964;DHT22;2497;47.410;9.740;2023-04-16T04:01:58;3.90;99.90
4964;DHT22;2497;47.410;9.740;2023-04-16T04:04:25;3.90;99.90
4964;DHT22;2497;47.410;9.740;2023-04-16T04:06:52;3.90;99.90
4964;DHT22;2497;47.410;9.740;2023-04-16T04:09:19;3.90;99.90
4964;DHT22;2497;47.410;9.740;2023-04-16T04:11:46;3.90;99.90
4964;DHT22;2497;47.410;9.740;2023-04-16T04:14:15;3.90;99.90
4964;DHT22;2497;47.410;9.740;2023-04-16T04:16:42;3.90;99.90
4964;DHT22;2497;47.410;9.740;2023-04-16T04:19:09;3.90;99.90
4964;DHT22;2497;47.410;9.740;2023-04-16T04:21:37;3.90;99.90
4964;DHT22;2497;47.410;9.740;2023-04-16T04:24:09;3.90;99.90
4964;DHT22;2497;47.410;9.740;2023-04-16T04:26:36;3.90;99.90
4964;DHT22;2497;47.410;9.740;2023-04-16T04:29:03;3.90;99.90
4964;DHT22;2497;47.410;9.740;2023-04-16T04:31:32;3.90;99.90
4964;DHT22;2497;47.410;9.740;2023-04-16T04:33:59;3.90;99.90
4964;DHT22;2497;47.410;9.740;2023-04-16T04:36:26;3.90;99.90
4964;DHT22;2497;47.410;9.740;2023-04-16T04:38:53;3.90;99.90
4964;DHT22;2497;47.410;9.740;2023-04-16T04:41:20;3.90;99.90
4964;DHT22;2497;47.410;9.740;2023-04-16T04:43:47;3.90;99.90
4964;DHT22;2497;47.410;9.740;2023-04-16T04:46:16;3.90;99.90
4964;DHT22;2497;47.410;9.740;2023-04-16T04:48:45;3.90;99.90
4964;DHT22;2497;47.410;9.740;2023-04-16T04:51:12;3.90;99.90
4964;DHT22;2497;47.410;9.740;2023-04-16T04:53:39;3.90;99.90
4964;DHT22;2497;47.410;9.740;2023-04-16T04:56:06;3.90;99.90
4964;DHT22;2497;47.410;9.740;2023-04-16T04:58:33;3.90;99.90
4964;DHT22;2497;47.410;9.740;2023-04-16T05:01:00;3.90;99.90
4964;DHT22;2497;47.410;9.740;2023-04-16T05:03:27;3.80;99.90
4964;DHT22;2497;47.410;9.740;2023-04-16T05:05:56;3.90;99.90
4964;DHT22;2497;47.410;9.740;2023-04-16T05:08:23;3.80;99.90
4964;DHT22;2497;47.410;9.740;2023-04-16T05:10:50;3.80;99.90
4964;DHT22;2497;47.410;9.740;2023-04-16T05:13:17;3.80;99.90
4964;DHT22;2497;47.410;9.740;2023-04-16T05:15:44;3.80;99.90
4964;DHT22;2497;47.410;9.740;2023-04-16T05:18:11;3.80;99.90
4964;DHT22;2497;47.410;9.740;2023-04-16T05:20:38;3.80;99.90
4964;DHT22;2497;47.410;9.740;2023-04-16T05:23:07;3.80;99.90
4964;DHT22;2497;47.410;9.740;2023-04-16T05:25:34;3.80;99.90
4964;DHT22;2497;47.410;9.740;2023-04-16T05:28:01;3.80;99.90
4964;DHT22;2497;47.410;9.740;2023-04-16T05:30:28;3.90;99.90
4964;DHT22;2497;47.410;9.740;2023-04-16T05:32:55;3.90;99.90
4964;DHT22;2497;47.410;9.740;2023-04-16T05:35:22;3.90;99.90
4964;DHT22;2497;47.410;9.740;2023-04-16T05:37:50;3.90;99.90
4964;DHT22;2497;47.410;9.740;2023-04-16T05:40:18;3.80;99.90
4964;DHT22;2497;47.410;9.740;2023-04-16T05:42:45;3.90;99.90
4964;DHT22;2497;47.410;9.740;2023-04-16T05:45:12;3.90;99.90
4964;DHT22;2497;47.410;9.740;2023-04-16T05:47:39;3.90;99.90
4964;DHT22;2497;47.410;9.740;2023-04-16T05:50:07;3.90;99.90
4964;DHT22;2497;47.410;9.740;2023-04-16T05:52:34;3.90;99.90
4964;DHT22;2497;47.410;9.740;2023-04-16T05:55:01;3.90;99.90
4964;DHT22;2497;47.410;9.740;2023-04-16T05:57:30;3.90;99.90
4964;DHT22;2497;47.410;9.740;2023-04-16T05:59:57;3.90;99.90
4964;DHT22;2497;47.410;9.740;2023-04-16T06:02:24;3.90;99.90
4964;DHT22;2497;47.410;9.740;2023-04-16T06:04:51;3.90;99.90
4964;DHT22;2497;47.410;9.740;2023-04-16T06:07:18;3.90;99.90
4964;DHT22;2497;47.410;9.740;2023-04-16T06:09:45;4.00;99.90
4964;DHT22;2497;47.410;9.740;2023-04-16T06:12:12;3.90;99.90
4964;DHT22;2497;47.410;9.740;2023-04-16T06:14:41;3.90;99.90
4964;DHT22;2497;47.410;9.740;2023-04-16T06:17:08;4.00;99.90
4964;DHT22;2497;47.410;9.740;2023-04-16T06:19:35;4.00;99.90
4964;DHT22;2497;47.410;9.740;2023-04-16T06:22:02;4.00;99.90
4964;DHT22;2497;47.410;9.740;2023-04-16T06:24:31;4.00;99.90
4964;DHT22;2497;47.410;9.740;2023-04-16T06:26:58;4.00;99.90
4964;DHT22;2497;47.410;9.740;2023-04-16T06:29:25;4.10;99.90
4964;DHT22;2497;47.410;9.740;2023-04-16T06:31:53;4.10;99.90
4964;DHT22;2497;47.410;9.740;2023-04-16T06:34:21;4.10;99.90
4964;DHT22;2497;47.410;9.740;2023-04-16T06:36:48;4.10;99.90
4964;DHT22;2497;47.410;9.740;2023-04-16T06:39:15;4.10;99.90
4964;DHT22;2497;47.410;9.740;2023-04-16T06:41:42;4.20;99.90
4964;DHT22;2497;47.410;9.740;2023-04-16T06:44:14;4.20;99.90
4964;DHT22;2497;47.410;9.740;2023-04-16T06:46:41;4.10;99.90
4964;DHT22;2497;47.410;9.740;2023-04-16T06:49:13;4.10;99.90
4964;DHT22;2497;47.410;9.740;2023-04-16T06:51:40;4.10;99.90
4964;DHT22;2497;47.410;9.740;2023-04-16T06:54:08;4.10;99.90
4964;DHT22;2497;47.410;9.740;2023-04-16T06:56:37;4.20;99.90
4964;DHT22;2497;47.410;9.740;2023-04-16T06:59:04;4.10;99.90
4964;DHT22;2497;47.410;9.740;2023-04-16T07:01:31;4.20;99.90
4964;DHT22;2497;47.410;9.740;2023-04-16T07:03:58;4.20;99.90
4964;DHT22;2497;47.410;9.740;2023-04-16T07:06:29;4.20;99.90
4964;DHT22;2497;47.410;9.740;2023-04-16T07:08:56;4.20;99.90
4964;DHT22;2497;47.410;9.740;2023-04-16T07:11:23;4.20;99.90
4964;DHT22;2497;47.410;9.740;2023-04-16T07:13:51;4.20;99.90
4964;DHT22;2497;47.410;9.740;2023-04-16T07:16:19;4.20;99.90
4964;DHT22;2497;47.410;9.740;2023-04-16T07:18:46;4.20;99.90
4964;DHT22;2497;47.410;9.740;2023-04-16T07:21:13;4.30;99.90
4964;DHT22;2497;47.410;9.740;2023-04-16T07:23:42;4.30;99.90
4964;DHT22;2497;47.410;9.740;2023-04-16T07:26:12;4.30;99.90
4964;DHT22;2497;47.410;9.740;2023-04-16T07:28:39;4.20;99.90
4964;DHT22;2497;47.410;9.740;2023-04-16T07:31:06;4.30;99.90
4964;DHT22;2497;47.410;9.740;2023-04-16T07:33:34;4.30;99.90
4964;DHT22;2497;47.410;9.740;2023-04-16T07:36:01;4.30;99.90
4964;DHT22;2497;47.410;9.740;2023-04-16T07:38:28;4.40;99.90
4964;DHT22;2497;47.410;9.740;2023-04-16T07:40:56;4.40;99.90
4964;DHT22;2497;47.410;9.740;2023-04-16T07:43:23;4.40;99.90
4964;DHT22;2497;47.410;9.740;2023-04-16T07:45:51;4.40;99.90
4964;DHT22;2497;47.410;9.740;2023-04-16T07:48:18;4.50;99.90
4964;DHT22;2497;47.410;9.740;2023-04-16T07:50:45;4.40;99.90
4964;DHT22;2497;47.410;9.740;2023-04-16T07:53:12;4.40;99.90
4964;DHT22;2497;47.410;9.740;2023-04-16T07:55:39;4.40;99.90
4964;DHT22;2497;47.410;9.740;2023-04-16T07:58:08;4.40;99.90
4964;DHT22;2497;47.410;9.740;2023-04-16T08:00:36;4.50;99.90
4964;DHT22;2497;47.410;9.740;2023-04-16T08:03:03;4.50;99.90
4964;DHT22;2497;47.410;9.740;2023-04-16T08:05:30;4.60;99.90
4964;DHT22;2497;47.410;9.740;2023-04-16T08:07:57;4.60;99.90
4964;DHT22;2497;47.410;9.740;2023-04-16T08:10:24;4.70;99.90
4964;DHT22;2497;47.410;9.740;2023-04-16T08:12:52;4.60;99.90
4964;DHT22;2497;47.410;9.740;2023-04-16T08:15:20;4.70;99.90
4964;DHT22;2497;47.410;9.740;2023-04-16T08:17:47;4.70;99.90
4964;DHT22;2497;47.410;9.740;2023-04-16T08:20:15;4.70;99.90
4964;DHT22;2497;47.410;9.740;2023-04-16T08:22:42;4.80;99.90
4964;DHT22;2497;47.410;9.740;2023-04-16T08:25:10;4.80;99.90
4964;DHT22;2497;47.410;9.740;2023-04-16T08:27:38;4.90;99.90
4964;DHT22;2497;47.410;9.740;2023-04-16T08:30:08;4.90;99.90
4964;DHT22;2497;47.410;9.740;2023-04-16T08:32:37;5.00;99.90
4964;DHT22;2497;47.410;9.740;2023-04-16T08:35:05;5.00;99.90
4964;DHT22;2497;47.410;9.740;2023-04-16T08:37:32;5.10;99.90
4964;DHT22;2497;47.410;9.740;2023-04-16T08:39:59;5.20;99.90
4964;DHT22;2497;47.410;9.740;2023-04-16T08:42:30;5.10;99.90
4964;DHT22;2497;47.410;9.740;2023-04-16T08:45:06;5.10;99.90
4964;DHT22;2497;47.410;9.740;2023-04-16T08:47:35;5.10;99.90
4964;DHT22;2497;47.410;9.740;2023-04-16T08:50:05;5.20;99.90
4964;DHT22;2497;47.410;9.740;2023-04-16T08:52:33;5.20;99.90
4964;DHT22;2497;47.410;9.740;2023-04-16T08:55:05;5.30;99.90
4964;DHT22;2497;47.410;9.740;2023-04-16T08:57:38;5.30;99.90
4964;DHT22;2497;47.410;9.740;2023-04-16T09:00:16;5.40;99.90
4964;DHT22;2497;47.410;9.740;2023-04-16T09:02:44;5.50;99.90
4964;DHT22;2497;47.410;9.740;2023-04-16T09:05:14;5.50;99.90
4964;DHT22;2497;47.410;9.740;2023-04-16T09:07:44;5.50;99.90
4964;DHT22;2497;47.410;9.740;2023-04-16T09:10:12;5.50;99.90
4964;DHT22;2497;47.410;9.740;2023-04-16T09:12:41;5.50;99.90
4964;DHT22;2497;47.410;9.740;2023-04-16T09:15:10;5.60;99.90
4964;DHT22;2497;47.410;9.740;2023-04-16T09:17:37;5.50;99.90
4964;DHT22;2497;47.410;9.740;2023-04-16T09:20:06;5.60;99.90
4964;DHT22;2497;47.410;9.740;2023-04-16T09:22:37;5.60;99.90
4964;DHT22;2497;47.410;9.740;2023-04-16T09:25:05;5.70;99.90
4964;DHT22;2497;47.410;9.740;2023-04-16T09:27:32;5.70;99.90
4964;DHT22;2497;47.410;9.740;2023-04-16T09:29:59;5.80;99.90
4964;DHT22;2497;47.410;9.740;2023-04-16T09:32:28;5.80;99.90
4964;DHT22;2497;47.410;9.740;2023-04-16T09:34:56;5.90;99.90
4964;DHT22;2497;47.410;9.740;2023-04-16T09:37:24;5.90;99.90
4964;DHT22;2497;47.410;9.740;2023-04-16T09:39:57;5.90;99.90
4964;DHT22;2497;47.410;9.740;2023-04-16T09:42:26;6.00;99.90
4964;DHT22;2497;47.410;9.740;2023-04-16T09:44:54;6.00;99.90
4964;DHT22;2497;47.410;9.740;2023-04-16T09:47:38;6.00;99.90
4964;DHT22;2497;47.410;9.740;2023-04-16T09:50:06;5.90;99.90
4964;DHT22;2497;47.410;9.740;2023-04-16T09:52:36;5.90;99.90
4964;DHT22;2497;47.410;9.740;2023-04-16T09:55:06;6.00;99.90
4964;DHT22;2497;47.410;9.740;2023-04-16T09:57:36;6.00;99.90
4964;DHT22;2497;47.410;9.740;2023-04-16T10:00:08;6.00;99.90
4964;DHT22;2497;47.410;9.740;2023-04-16T10:02:39;6.00;99.90
4964;DHT22;2497;47.410;9.740;2023-04-16T10:05:07;6.10;99.90
4964;DHT22;2497;47.410;9.740;2023-04-16T10:07:35;6.00;99.90
4964;DHT22;2497;47.410;9.740;2023-04-16T10:10:05;6.00;99.90
4964;DHT22;2497;47.410;9.740;2023-04-16T10:12:32;6.00;99.90
4964;DHT22;2497;47.410;9.740;2023-04-16T10:15:00;6.00;99.90
4964;DHT22;2497;47.410;9.740;2023-04-16T10:17:28;6.00;99.90
4964;DHT22;2497;47.410;9.740;2023-04-16T10:19:57;6.00;99.90
4964;DHT22;2497;47.410;9.740;2023-04-16T10:22:24;6.10;99.90
4964;DHT22;2497;47.410;9.740;2023-04-16T10:24:52;6.20;99.90
4964;DHT22;2497;47.410;9.740;2023-04-16T10:27:21;6.20;99.90
4964;DHT22;2497;47.410;9.740;2023-04-16T10:29:55;6.20;99.90
4964;DHT22;2497;47.410;9.740;2023-04-16T10:32:24;6.20;99.90
4964;DHT22;2497;47.410;9.740;2023-04-16T10:34:53;6.20;99.90
4964;DHT22;2497;47.410;9.740;2023-04-16T10:37:28;6.30;99.90
4964;DHT22;2497;47.410;9.740;2023-04-16T10:39:57;6.30;99.90
4964;DHT22;2497;47.410;9.740;2023-04-16T10:42:26;6.40;99.90
4964;DHT22;2497;47.410;9.740;2023-04-16T10:44:53;6.50;99.90
4964;DHT22;2497;47.410;9.740;2023-04-16T10:47:23;6.50;99.90
4964;DHT22;2497;47.410;9.740;2023-04-16T10:49:53;6.40;99.90
4964;DHT22;2497;47.410;9.740;2023-04-16T10:52:21;6.40;99.90
4964;DHT22;2497;47.410;9.740;2023-04-16T10:54:51;6.40;99.90
4964;DHT22;2497;47.410;9.740;2023-04-16T10:57:20;6.40;99.90
4964;DHT22;2497;47.410;9.740;2023-04-16T10:59:49;6.50;99.90
4964;DHT22;2497;47.410;9.740;2023-04-16T11:02:17;6.40;99.90
4964;DHT22;2497;47.410;9.740;2023-04-16T11:04:44;6.40;99.90
4964;DHT22;2497;47.410;9.740;2023-04-16T11:07:17;6.50;99.90
4964;DHT22;2497;47.410;9.740;2023-04-16T11:10:02;6.40;99.90
4964;DHT22;2497;47.410;9.740;2023-04-16T11:12:33;6.50;99.90
4964;DHT22;2497;47.410;9.740;2023-04-16T11:15:05;6.40;99.90
4964;DHT22;2497;47.410;9.740;2023-04-16T11:17:35;6.30;99.90
4964;DHT22;2497;47.410;9.740;2023-04-16T11:20:04;6.30;99.90
4964;DHT22;2497;47.410;9.740;2023-04-16T11:22:34;6.30;99.90
4964;DHT22;2497;47.410;9.740;2023-04-16T11:25:03;6.30;99.90
4964;DHT22;2497;47.410;9.740;2023-04-16T11:27:32;6.40;99.90
4964;DHT22;2497;47.410;9.740;2023-04-16T11:30:05;6.30;99.90
4964;DHT22;2497;47.410;9.740;2023-04-16T11:32:35;6.30;99.90
4964;DHT22;2497;47.410;9.740;2023-04-16T11:35:03;6.30;99.90
4964;DHT22;2497;47.410;9.740;2023-04-16T11:37:31;6.40;99.90
4964;DHT22;2497;47.410;9.740;2023-04-16T11:40:00;6.50;99.90
4964;DHT22;2497;47.410;9.740;2023-04-16T11:42:29;6.50;99.90
4964;DHT22;2497;47.410;9.740;2023-04-16T11:44:58;6.50;99.90
4964;DHT22;2497;47.410;9.740;2023-04-16T11:47:29;6.50;99.90
4964;DHT22;2497;47.410;9.740;2023-04-16T11:49:56;6.50;99.90
4964;DHT22;2497;47.410;9.740;2023-04-16T11:52:27;6.50;99.90
4964;DHT22;2497;47.410;9.740;2023-04-16T11:54:54;6.60;99.90
4964;DHT22;2497;47.410;9.740;2023-04-16T11:57:25;6.60;99.90
4964;DHT22;2497;47.410;9.740;2023-04-16T11:59:52;6.70;99.90
4964;DHT22;2497;47.410;9.740;2023-04-16T12:02:36;6.80;99.90
4964;DHT22;2497;47.410;9.740;2023-04-16T12:05:05;6.80;99.90
4964;DHT22;2497;47.410;9.740;2023-04-16T12:07:42;6.80;99.90
4964;DHT22;2497;47.410;9.740;2023-04-16T12:10:10;6.80;99.90
4964;DHT22;2497;47.410;9.740;2023-04-16T12:12:37;6.80;99.90
4964;DHT22;2497;47.410;9.740;2023-04-16T12:15:05;6.80;99.90
4964;DHT22;2497;47.410;9.740;2023-04-16T12:17:34;6.80;99.90
4964;DHT22;2497;47.410;9.740;2023-04-16T12:20:03;6.80;99.90
4964;DHT22;2497;47.410;9.740;2023-04-16T12:22:35;6.80;99.90
4964;DHT22;2497;47.410;9.740;2023-04-16T12:25:04;6.80;99.90
4964;DHT22;2497;47.410;9.740;2023-04-16T12:27:44;6.80;99.90
4964;DHT22;2497;47.410;9.740;2023-04-16T12:30:13;6.80;99.90
4964;DHT22;2497;47.410;9.740;2023-04-16T12:32:41;6.80;99.90
4964;DHT22;2497;47.410;9.740;2023-04-16T12:35:11;6.80;99.90
4964;DHT22;2497;47.410;9.740;2023-04-16T12:37:38;6.80;99.90
4964;DHT22;2497;47.410;9.740;2023-04-16T12:40:06;6.80;99.90
4964;DHT22;2497;47.410;9.740;2023-04-16T12:42:34;6.90;99.90
4964;DHT22;2497;47.410;9.740;2023-04-16T12:45:04;6.90;99.90
4964;DHT22;2497;47.410;9.740;2023-04-16T12:47:32;7.00;99.90
4964;DHT22;2497;47.410;9.740;2023-04-16T12:49:59;6.90;99.90
4964;DHT22;2497;47.410;9.740;2023-04-16T12:52:28;7.00;99.90
4964;DHT22;2497;47.410;9.740;2023-04-16T12:54:55;7.00;99.90
4964;DHT22;2497;47.410;9.740;2023-04-16T12:57:22;7.00;99.90
4964;DHT22;2497;47.410;9.740;2023-04-16T12:59:53;6.90;99.90
4964;DHT22;2497;47.410;9.740;2023-04-16T13:02:20;6.90;99.90
4964;DHT22;2497;47.410;9.740;2023-04-16T13:04:48;6.90;99.90
4964;DHT22;2497;47.410;9.740;2023-04-16T13:07:15;6.90;99.90
4964;DHT22;2497;47.410;9.740;2023-04-16T13:09:45;6.90;99.90
4964;DHT22;2497;47.410;9.740;2023-04-16T13:12:12;6.90;99.90
4964;DHT22;2497;47.410;9.740;2023-04-16T13:14:39;6.90;99.90
4964;DHT22;2497;47.410;9.740;2023-04-16T13:17:06;6.90;99.90
4964;DHT22;2497;47.410;9.740;2023-04-16T13:19:33;7.00;99.90
4964;DHT22;2497;47.410;9.740;2023-04-16T13:22:00;7.00;99.90
4964;DHT22;2497;47.410;9.740;2023-04-16T13:24:27;7.00;99.90
4964;DHT22;2497;47.410;9.740;2023-04-16T13:26:57;6.90;99.90
4964;DHT22;2497;47.410;9.740;2023-04-16T13:29:24;6.90;99.90
4964;DHT22;2497;47.410;9.740;2023-04-16T13:31:52;6.90;99.90
4964;DHT22;2497;47.410;9.740;2023-04-16T13:34:19;6.90;99.90
4964;DHT22;2497;47.410;9.740;2023-04-16T13:36:46;6.80;99.90
4964;DHT22;2497;47.410;9.740;2023-04-16T13:39:14;6.90;99.90
4964;DHT22;2497;47.410;9.740;2023-04-16T13:41:41;6.80;99.90
4964;DHT22;2497;47.410;9.740;2023-04-16T13:44:10;6.80;99.90
4964;DHT22;2497;47.410;9.740;2023-04-16T13:46:37;6.70;99.90
4964;DHT22;2497;47.410;9.740;2023-04-16T13:49:04;6.70;99.90
4964;DHT22;2497;47.410;9.740;2023-04-16T13:51:32;6.70;99.90
4964;DHT22;2497;47.410;9.740;2023-04-16T13:53:59;6.70;99.90
4964;DHT22;2497;47.410;9.740;2023-04-16T13:56:26;6.60;99.90
4964;DHT22;2497;47.410;9.740;2023-04-16T13:58:53;6.50;99.90
4964;DHT22;2497;47.410;9.740;2023-04-16T14:01:22;6.50;99.90
4964;DHT22;2497;47.410;9.740;2023-04-16T14:03:49;6.50;99.90
4964;DHT22;2497;47.410;9.740;2023-04-16T14:06:16;6.50;99.90
4964;DHT22;2497;47.410;9.740;2023-04-16T14:08:43;6.50;99.90
4964;DHT22;2497;47.410;9.740;2023-04-16T14:11:10;6.50;99.90
4964;DHT22;2497;47.410;9.740;2023-04-16T14:13:38;6.50;99.90
4964;DHT22;2497;47.410;9.740;2023-04-16T14:16:05;6.50;99.90
4964;DHT22;2497;47.410;9.740;2023-04-16T14:18:34;6.60;99.90
4964;DHT22;2497;47.410;9.740;2023-04-16T14:21:05;6.60;99.90
4964;DHT22;2497;47.410;9.740;2023-04-16T14:23:32;6.60;99.90
4964;DHT22;2497;47.410;9.740;2023-04-16T14:25:59;6.60;99.90
4964;DHT22;2497;47.410;9.740;2023-04-16T14:28:28;6.60;99.90
4964;DHT22;2497;47.410;9.740;2023-04-16T14:30:56;6.60;99.90
4964;DHT22;2497;47.410;9.740;2023-04-16T14:33:23;6.60;99.90
4964;DHT22;2497;47.410;9.740;2023-04-16T14:35:52;6.60;99.90
4964;DHT22;2497;47.410;9.740;2023-04-16T14:38:19;6.60;99.90
4964;DHT22;2497;47.410;9.740;2023-04-16T14:40:47;6.70;99.90
4964;DHT22;2497;47.410;9.740;2023-04-16T14:43:15;6.80;99.90
4964;DHT22;2497;47.410;9.740;2023-04-16T14:45:42;6.90;99.90
4964;DHT22;2497;47.410;9.740;2023-04-16T14:48:10;6.80;99.90
4964;DHT22;2497;47.410;9.740;2023-04-16T14:50:37;6.80;99.90
4964;DHT22;2497;47.410;9.740;2023-04-16T14:53:10;6.80;99.90
4964;DHT22;2497;47.410;9.740;2023-04-16T14:55:37;6.70;99.90
4964;DHT22;2497;47.410;9.740;2023-04-16T14:58:04;6.70;99.90
4964;DHT22;2497;47.410;9.740;2023-04-16T15:00:34;6.70;99.90
4964;DHT22;2497;47.410;9.740;2023-04-16T15:03:02;6.70;99.90
4964;DHT22;2497;47.410;9.740;2023-04-16T15:05:29;6.70;99.90
4964;DHT22;2497;47.410;9.740;2023-04-16T15:07:57;6.60;99.90
4964;DHT22;2497;47.410;9.740;2023-04-16T15:10:26;6.60;99.90
4964;DHT22;2497;47.410;9.740;2023-04-16T15:12:53;6.60;99.90
4964;DHT22;2497;47.410;9.740;2023-04-16T15:15:20;6.50;99.90
4964;DHT22;2497;47.410;9.740;2023-04-16T15:17:47;6.50;99.90
4964;DHT22;2497;47.410;9.740;2023-04-16T15:20:16;6.60;99.90
4964;DHT22;2497;47.410;9.740;2023-04-16T15:22:43;6.50;99.90
4964;DHT22;2497;47.410;9.740;2023-04-16T15:25:11;6.60;99.90
4964;DHT22;2497;47.410;9.740;2023-04-16T15:27:40;6.60;99.90
4964;DHT22;2497;47.410;9.740;2023-04-16T15:30:08;6.60;99.90
4964;DHT22;2497;47.410;9.740;2023-04-16T15:32:37;6.60;99.90
4964;DHT22;2497;47.410;9.740;2023-04-16T15:35:05;6.60;99.90
4964;DHT22;2497;47.410;9.740;2023-04-16T15:37:32;6.70;99.90
4964;DHT22;2497;47.410;9.740;2023-04-16T15:39:59;6.60;99.90
4964;DHT22;2497;47.410;9.740;2023-04-16T15:42:26;6.60;99.90
4964;DHT22;2497;47.410;9.740;2023-04-16T15:44:55;6.60;99.90
4964;DHT22;2497;47.410;9.740;2023-04-16T15:47:23;6.50;99.90
4964;DHT22;2497;47.410;9.740;2023-04-16T15:49:50;6.50;99.90
4964;DHT22;2497;47.410;9.740;2023-04-16T15:52:17;6.50;99.90
4964;DHT22;2497;47.410;9.740;2023-04-16T15:54:45;6.50;99.90
4964;DHT22;2497;47.410;9.740;2023-04-16T15:57:14;6.50;99.90
4964;DHT22;2497;47.410;9.740;2023-04-16T15:59:42;6.50;99.90
4964;DHT22;2497;47.410;9.740;2023-04-16T16:02:10;6.50;99.90
4964;DHT22;2497;47.410;9.740;2023-04-16T16:04:38;6.60;99.90
4964;DHT22;2497;47.410;9.740;2023-04-16T16:07:10;6.50;99.90
4964;DHT22;2497;47.410;9.740;2023-04-16T16:09:40;6.50;99.90
4964;DHT22;2497;47.410;9.740;2023-04-16T16:12:07;6.50;99.90
4964;DHT22;2497;47.410;9.740;2023-04-16T16:14:35;6.50;99.90
4964;DHT22;2497;47.410;9.740;2023-04-16T16:17:02;6.50;99.90
4964;DHT22;2497;47.410;9.740;2023-04-16T16:19:34;6.50;99.90
4964;DHT22;2497;47.410;9.740;2023-04-16T16:22:02;6.50;99.90